sensor_id;sensor_type;location;lat;lon;timestamp;pressure;altitude;pressure_sealevel;temperature;humidity
76680;BME280;65597;51.520;-0.224;2023-09-12T00:00:21;101259.11;;;20.50;45.31
76680;BME280;65597;51.520;-0.224;2023-09-12T00:02:46;101255.47;;;20.37;45.15
76680;BME280;65597;51.520;-0.224;2023-09-12T00:05:12;101254.76;;;20.55;45.10
76680;BME280;65597;51.520;-0.224;2023-09-12T00:07:39;101255.97;;;19.96;45.60
76680;BME280;65597;51.520;-0.224;2023-09-12T00:10:03;101253.69;;;20.32;45.10
76680;BME280;65597;51.520;-0.224;2023-09-12T00:12:28;101251.08;;;20.68;44.93
76680;BME280;65597;51.520;-0.224;2023-09-12T00:14:54;101249.91;;;20.49;44.87
76680;BME280;65597;51.520;-0.224;2023-09-12T00:17:18;101249.59;;;20.72;44.88
76680;BME280;65597;51.520;-0.224;2023-09-12T00:19:43;101251.52;;;20.80;44.76
76680;BME280;65597;51.520;-0.224;2023-09-12T00:22:09;101249.52;;;20.76;44.73
76680;BME280;65597;51.520;-0.224;2023-09-12T00:24:34;101246.66;;;20.88;44.76
76680;BME280;65597;51.520;-0.224;2023-09-12T00:27:00;101244.83;;;20.78;44.84
76680;BME280;65597;51.520;-0.224;2023-09-12T00:29:25;101247.56;;;20.41;44.66
76680;BME280;65597;51.520;-0.224;2023-09-12T00:31:51;101243.10;;;19.85;45.45
76680;BME280;65597;51.520;-0.224;2023-09-12T00:34:16;101242.26;;;19.92;45.76
76680;BME280;65597;51.520;-0.224;2023-09-12T00:36:41;101242.35;;;20.05;45.57
76680;BME280;65597;51.520;-0.224;2023-09-12T00:39:06;101240.01;;;19.85;45.08
76680;BME280;65597;51.520;-0.224;2023-09-12T00:41:32;101243.18;;;19.96;45.15
76680;BME280;65597;51.520;-0.224;2023-09-12T00:43:57;101244.46;;;19.94;44.75
76680;BME280;65597;51.520;-0.224;2023-09-12T00:46:23;101245.17;;;20.30;44.46
76680;BME280;65597;51.520;-0.224;2023-09-12T00:48:49;101245.47;;;21.03;44.42
76680;BME280;65597;51.520;-0.224;2023-09-12T00:51:13;101242.77;;;20.64;44.10
76680;BME280;65597;51.520;-0.224;2023-09-12T00:53:40;101241.99;;;20.69;43.94
76680;BME280;65597;51.520;-0.224;2023-09-12T00:56:04;101241.62;;;20.44;43.87
76680;BME280;65597;51.520;-0.224;2023-09-12T00:58:29;101240.86;;;20.60;43.90
76680;BME280;65597;51.520;-0.224;2023-09-12T01:00:56;101240.04;;;20.00;44.47
76680;BME280;65597;51.520;-0.224;2023-09-12T01:03:21;101238.10;;;20.34;44.33
76680;BME280;65597;51.520;-0.224;2023-09-12T01:05:46;101237.27;;;20.34;44.30
76680;BME280;65597;51.520;-0.224;2023-09-12T01:08:10;101233.84;;;19.93;44.51
76680;BME280;65597;51.520;-0.224;2023-09-12T01:10:36;101230.28;;;20.62;44.23
76680;BME280;65597;51.520;-0.224;2023-09-12T01:13:01;101227.10;;;20.13;44.59
76680;BME280;65597;51.520;-0.224;2023-09-12T01:15:28;101224.41;;;20.31;44.78
76680;BME280;65597;51.520;-0.224;2023-09-12T01:17:51;101223.01;;;19.78;44.87
76680;BME280;65597;51.520;-0.224;2023-09-12T01:20:21;101223.89;;;20.30;44.43
76680;BME280;65597;51.520;-0.224;2023-09-12T01:22:54;101223.58;;;20.40;44.26
76680;BME280;65597;51.520;-0.224;2023-09-12T01:27:34;101223.01;;;20.35;44.36
76680;BME280;65597;51.520;-0.224;2023-09-12T01:30:01;101221.65;;;20.18;44.27
76680;BME280;65597;51.520;-0.224;2023-09-12T01:32:24;101221.74;;;20.40;44.77
76680;BME280;65597;51.520;-0.224;2023-09-12T01:34:49;101220.46;;;19.95;44.69
76680;BME280;65597;51.520;-0.224;2023-09-12T01:37:15;101221.41;;;20.38;44.78
76680;BME280;65597;51.520;-0.224;2023-09-12T01:39:40;101221.66;;;19.83;44.90
76680;BME280;65597;51.520;-0.224;2023-09-12T01:42:06;101219.62;;;20.36;44.83
76680;BME280;65597;51.520;-0.224;2023-09-12T01:44:31;101223.00;;;20.13;44.41
76680;BME280;65597;51.520;-0.224;2023-09-12T01:47:00;101222.16;;;20.27;44.14
76680;BME280;65597;51.520;-0.224;2023-09-12T01:49:23;101222.93;;;20.10;43.94
76680;BME280;65597;51.520;-0.224;2023-09-12T01:51:48;101221.97;;;20.06;44.33
76680;BME280;65597;51.520;-0.224;2023-09-12T01:54:14;101221.08;;;20.35;44.60
76680;BME280;65597;51.520;-0.224;2023-09-12T01:56:38;101218.87;;;19.99;44.87
76680;BME280;65597;51.520;-0.224;2023-09-12T01:59:03;101215.45;;;19.24;44.82
76680;BME280;65597;51.520;-0.224;2023-09-12T02:01:29;101213.34;;;19.78;44.84
76680;BME280;65597;51.520;-0.224;2023-09-12T02:03:55;101215.78;;;19.94;44.63
76680;BME280;65597;51.520;-0.224;2023-09-12T02:06:19;101214.86;;;20.09;44.42
76680;BME280;65597;51.520;-0.224;2023-09-12T02:08:49;101218.81;;;20.50;44.45
76680;BME280;65597;51.520;-0.224;2023-09-12T02:11:10;101219.70;;;20.11;44.27
76680;BME280;65597;51.520;-0.224;2023-09-12T02:13:35;101221.99;;;20.21;44.16
76680;BME280;65597;51.520;-0.224;2023-09-12T02:16:02;101224.63;;;20.04;44.21
76680;BME280;65597;51.520;-0.224;2023-09-12T02:18:26;101222.57;;;20.04;44.02
76680;BME280;65597;51.520;-0.224;2023-09-12T02:20:51;101220.06;;;20.60;43.76
76680;BME280;65597;51.520;-0.224;2023-09-12T02:23:16;101221.47;;;20.35;43.66
76680;BME280;65597;51.520;-0.224;2023-09-12T02:25:42;101218.82;;;20.29;43.63
76680;BME280;65597;51.520;-0.224;2023-09-12T02:28:08;101222.74;;;20.40;43.49
76680;BME280;65597;51.520;-0.224;2023-09-12T02:30:33;101223.95;;;20.57;43.55
76680;BME280;65597;51.520;-0.224;2023-09-12T02:32:58;101225.67;;;20.42;43.50
76680;BME280;65597;51.520;-0.224;2023-09-12T02:35:24;101227.79;;;20.21;43.50
76680;BME280;65597;51.520;-0.224;2023-09-12T02:37:49;101229.00;;;20.69;43.50
76680;BME280;65597;51.520;-0.224;2023-09-12T02:40:14;101227.56;;;20.21;43.51
76680;BME280;65597;51.520;-0.224;2023-09-12T02:42:39;101230.38;;;20.25;43.44
76680;BME280;65597;51.520;-0.224;2023-09-12T02:45:06;101231.27;;;20.50;43.48
76680;BME280;65597;51.520;-0.224;2023-09-12T02:47:30;101235.24;;;20.50;43.30
76680;BME280;65597;51.520;-0.224;2023-09-12T02:49:55;101239.19;;;20.27;43.22
76680;BME280;65597;51.520;-0.224;2023-09-12T02:52:22;101239.81;;;20.99;43.16
76680;BME280;65597;51.520;-0.224;2023-09-12T02:54:46;101238.52;;;20.78;43.08
76680;BME280;65597;51.520;-0.224;2023-09-12T02:57:11;101237.72;;;20.09;43.88
76680;BME280;65597;51.520;-0.224;2023-09-12T02:59:37;101235.19;;;20.84;43.54
76680;BME280;65597;51.520;-0.224;2023-09-12T03:02:02;101234.83;;;20.03;44.21
76680;BME280;65597;51.520;-0.224;2023-09-12T03:04:27;101234.20;;;20.17;44.11
76680;BME280;65597;51.520;-0.224;2023-09-12T03:06:52;101236.30;;;20.48;44.67
76680;BME280;65597;51.520;-0.224;2023-09-12T03:09:18;101235.77;;;20.55;44.71
76680;BME280;65597;51.520;-0.224;2023-09-12T03:11:43;101231.76;;;19.76;45.46
76680;BME280;65597;51.520;-0.224;2023-09-12T03:14:08;101236.39;;;20.52;45.08
76680;BME280;65597;51.520;-0.224;2023-09-12T03:16:37;101234.88;;;20.11;45.58
76680;BME280;65597;51.520;-0.224;2023-09-12T03:18:59;101232.36;;;19.74;45.87
76680;BME280;65597;51.520;-0.224;2023-09-12T03:21:24;101229.72;;;19.81;46.22
76680;BME280;65597;51.520;-0.224;2023-09-12T03:23:50;101228.17;;;19.57;46.26
76680;BME280;65597;51.520;-0.224;2023-09-12T03:26:15;101227.63;;;19.57;46.31
76680;BME280;65597;51.520;-0.224;2023-09-12T03:28:40;101228.86;;;20.30;45.89
76680;BME280;65597;51.520;-0.224;2023-09-12T03:31:07;101229.24;;;19.94;45.70
76680;BME280;65597;51.520;-0.224;2023-09-12T03:33:31;101228.49;;;20.48;45.59
76680;BME280;65597;51.520;-0.224;2023-09-12T03:35:56;101229.36;;;20.51;45.49
76680;BME280;65597;51.520;-0.224;2023-09-12T03:38:22;101227.87;;;20.50;45.51
76680;BME280;65597;51.520;-0.224;2023-09-12T03:40:47;101226.61;;;20.12;45.35
76680;BME280;65597;51.520;-0.224;2023-09-12T03:43:12;101221.26;;;20.17;45.24
76680;BME280;65597;51.520;-0.224;2023-09-12T03:45:37;101219.31;;;20.68;45.14
76680;BME280;65597;51.520;-0.224;2023-09-12T03:48:03;101219.39;;;20.70;45.20
76680;BME280;65597;51.520;-0.224;2023-09-12T03:50:28;101217.22;;;20.00;45.18
76680;BME280;65597;51.520;-0.224;2023-09-12T03:52:56;101219.83;;;20.05;45.02
76680;BME280;65597;51.520;-0.224;2023-09-12T03:55:19;101216.64;;;19.85;44.93
76680;BME280;65597;51.520;-0.224;2023-09-12T03:57:44;101219.26;;;20.09;44.77
76680;BME280;65597;51.520;-0.224;2023-09-12T04:00:10;101222.67;;;19.94;45.05
76680;BME280;65597;51.520;-0.224;2023-09-12T04:02:35;101216.10;;;19.67;45.92
76680;BME280;65597;51.520;-0.224;2023-09-12T04:05:02;101214.83;;;19.69;45.55
76680;BME280;65597;51.520;-0.224;2023-09-12T04:07:25;101214.72;;;19.83;45.32
76680;BME280;65597;51.520;-0.224;2023-09-12T04:09:51;101212.71;;;19.81;45.32
76680;BME280;65597;51.520;-0.224;2023-09-12T04:12:16;101214.46;;;20.32;45.31
76680;BME280;65597;51.520;-0.224;2023-09-12T04:14:41;101214.45;;;20.34;45.24
76680;BME280;65597;51.520;-0.224;2023-09-12T04:17:08;101214.54;;;19.95;45.12
76680;BME280;65597;51.520;-0.224;2023-09-12T04:19:32;101217.09;;;19.97;44.85
76680;BME280;65597;51.520;-0.224;2023-09-12T04:21:57;101215.28;;;20.47;44.84
76680;BME280;65597;51.520;-0.224;2023-09-12T04:24:22;101211.26;;;20.36;44.93
76680;BME280;65597;51.520;-0.224;2023-09-12T04:26:48;101209.24;;;20.12;45.26
76680;BME280;65597;51.520;-0.224;2023-09-12T04:29:15;101207.53;;;19.65;45.18
76680;BME280;65597;51.520;-0.224;2023-09-12T04:31:38;101198.85;;;19.87;45.55
76680;BME280;65597;51.520;-0.224;2023-09-12T04:34:04;101201.13;;;19.35;45.59
76680;BME280;65597;51.520;-0.224;2023-09-12T04:36:29;101202.05;;;19.63;45.17
76680;BME280;65597;51.520;-0.224;2023-09-12T04:38:55;101202.42;;;19.49;45.30
76680;BME280;65597;51.520;-0.224;2023-09-12T04:41:21;101197.87;;;19.55;45.12
76680;BME280;65597;51.520;-0.224;2023-09-12T04:43:45;101193.58;;;20.01;45.08
76680;BME280;65597;51.520;-0.224;2023-09-12T04:46:11;101193.86;;;20.04;45.01
76680;BME280;65597;51.520;-0.224;2023-09-12T04:48:35;101194.87;;;20.01;45.01
76680;BME280;65597;51.520;-0.224;2023-09-12T04:51:01;101193.92;;;19.54;45.30
76680;BME280;65597;51.520;-0.224;2023-09-12T04:53:27;101191.64;;;19.56;45.29
76680;BME280;65597;51.520;-0.224;2023-09-12T04:55:52;101190.67;;;19.41;45.56
76680;BME280;65597;51.520;-0.224;2023-09-12T04:58:17;101192.04;;;19.64;45.22
76680;BME280;65597;51.520;-0.224;2023-09-12T05:00:43;101192.16;;;19.66;45.57
76680;BME280;65597;51.520;-0.224;2023-09-12T05:03:08;101191.83;;;19.54;45.41
76680;BME280;65597;51.520;-0.224;2023-09-12T05:05:35;101192.59;;;19.88;45.28
76680;BME280;65597;51.520;-0.224;2023-09-12T05:07:59;101194.54;;;19.73;45.22
76680;BME280;65597;51.520;-0.224;2023-09-12T05:10:24;101196.05;;;19.71;45.22
76680;BME280;65597;51.520;-0.224;2023-09-12T05:12:50;101199.28;;;19.57;45.02
76680;BME280;65597;51.520;-0.224;2023-09-12T05:15:15;101202.06;;;19.61;45.09
76680;BME280;65597;51.520;-0.224;2023-09-12T05:17:40;101205.73;;;19.53;45.02
76680;BME280;65597;51.520;-0.224;2023-09-12T05:20:07;101207.00;;;19.88;45.23
76680;BME280;65597;51.520;-0.224;2023-09-12T05:22:31;101206.62;;;20.10;44.93
76680;BME280;65597;51.520;-0.224;2023-09-12T05:24:57;101208.03;;;20.14;44.81
76680;BME280;65597;51.520;-0.224;2023-09-12T05:27:22;101208.96;;;19.82;44.95
76680;BME280;65597;51.520;-0.224;2023-09-12T05:29:47;101206.60;;;20.05;44.98
76680;BME280;65597;51.520;-0.224;2023-09-12T05:32:13;101203.40;;;19.98;44.99
76680;BME280;65597;51.520;-0.224;2023-09-12T05:34:38;101201.36;;;20.06;44.90
76680;BME280;65597;51.520;-0.224;2023-09-12T05:37:04;101203.47;;;19.61;44.90
76680;BME280;65597;51.520;-0.224;2023-09-12T05:39:29;101202.02;;;19.88;44.79
76680;BME280;65597;51.520;-0.224;2023-09-12T05:41:56;101202.69;;;19.65;44.72
76680;BME280;65597;51.520;-0.224;2023-09-12T05:44:21;101202.63;;;20.18;44.61
76680;BME280;65597;51.520;-0.224;2023-09-12T05:46:46;101205.66;;;19.67;44.63
76680;BME280;65597;51.520;-0.224;2023-09-12T05:49:11;101211.01;;;19.72;44.43
76680;BME280;65597;51.520;-0.224;2023-09-12T05:51:36;101213.30;;;19.50;44.37
76680;BME280;65597;51.520;-0.224;2023-09-12T05:54:03;101217.73;;;20.27;44.33
76680;BME280;65597;51.520;-0.224;2023-09-12T05:56:27;101219.99;;;19.80;44.36
76680;BME280;65597;51.520;-0.224;2023-09-12T05:58:52;101224.68;;;20.31;44.33
76680;BME280;65597;51.520;-0.224;2023-09-12T06:01:18;101227.14;;;19.76;44.35
76680;BME280;65597;51.520;-0.224;2023-09-12T06:03:43;101229.91;;;19.74;44.63
76680;BME280;65597;51.520;-0.224;2023-09-12T06:06:10;101232.00;;;19.58;44.56
76680;BME280;65597;51.520;-0.224;2023-09-12T06:08:34;101232.94;;;19.96;44.81
76680;BME280;65597;51.520;-0.224;2023-09-12T06:10:59;101233.01;;;19.99;44.78
76680;BME280;65597;51.520;-0.224;2023-09-12T06:13:25;101234.10;;;19.53;44.67
76680;BME280;65597;51.520;-0.224;2023-09-12T06:15:50;101236.11;;;20.12;44.64
76680;BME280;65597;51.520;-0.224;2023-09-12T06:18:16;101239.39;;;20.07;44.68
76680;BME280;65597;51.520;-0.224;2023-09-12T06:20:41;101242.40;;;20.17;44.59
76680;BME280;65597;51.520;-0.224;2023-09-12T06:23:06;101241.80;;;19.85;44.89
76680;BME280;65597;51.520;-0.224;2023-09-12T06:25:31;101247.87;;;19.83;44.51
76680;BME280;65597;51.520;-0.224;2023-09-12T06:27:56;101251.35;;;19.89;44.49
76680;BME280;65597;51.520;-0.224;2023-09-12T06:30:22;101251.03;;;20.16;44.38
76680;BME280;65597;51.520;-0.224;2023-09-12T06:32:47;101252.44;;;19.97;44.20
76680;BME280;65597;51.520;-0.224;2023-09-12T06:35:12;101255.17;;;20.01;44.14
76680;BME280;65597;51.520;-0.224;2023-09-12T06:37:38;101258.91;;;20.47;44.21
76680;BME280;65597;51.520;-0.224;2023-09-12T06:40:03;101260.53;;;19.84;44.16
76680;BME280;65597;51.520;-0.224;2023-09-12T06:42:30;101262.14;;;20.27;44.49
76680;BME280;65597;51.520;-0.224;2023-09-12T06:44:53;101265.18;;;20.18;45.01
76680;BME280;65597;51.520;-0.224;2023-09-12T06:47:19;101265.71;;;19.74;45.20
76680;BME280;65597;51.520;-0.224;2023-09-12T06:49:44;101267.27;;;20.20;45.07
76680;BME280;65597;51.520;-0.224;2023-09-12T06:52:09;101273.40;;;20.28;45.05
76680;BME280;65597;51.520;-0.224;2023-09-12T06:54:36;101277.28;;;20.31;45.05
76680;BME280;65597;51.520;-0.224;2023-09-12T06:57:00;101282.80;;;19.88;45.15
76680;BME280;65597;51.520;-0.224;2023-09-12T06:59:25;101282.57;;;19.98;45.09
76680;BME280;65597;51.520;-0.224;2023-09-12T07:01:51;101285.74;;;19.83;45.19
76680;BME280;65597;51.520;-0.224;2023-09-12T07:04:16;101287.11;;;20.06;45.35
76680;BME280;65597;51.520;-0.224;2023-09-12T07:06:41;101289.03;;;20.33;45.35
76680;BME280;65597;51.520;-0.224;2023-09-12T07:09:07;101287.34;;;20.38;45.53
76680;BME280;65597;51.520;-0.224;2023-09-12T07:11:33;101286.69;;;19.76;45.43
76680;BME280;65597;51.520;-0.224;2023-09-12T07:13:58;101286.53;;;19.24;45.86
76680;BME280;65597;51.520;-0.224;2023-09-12T07:16:23;101288.81;;;19.71;45.47
76680;BME280;65597;51.520;-0.224;2023-09-12T07:18:48;101288.38;;;19.18;45.77
76680;BME280;65597;51.520;-0.224;2023-09-12T07:21:14;101293.12;;;19.04;46.10
76680;BME280;65597;51.520;-0.224;2023-09-12T07:23:39;101296.54;;;19.81;46.09
76680;BME280;65597;51.520;-0.224;2023-09-12T07:26:04;101297.17;;;19.52;45.72
76680;BME280;65597;51.520;-0.224;2023-09-12T07:28:30;101295.48;;;20.05;45.53
76680;BME280;65597;51.520;-0.224;2023-09-12T07:30:57;101296.44;;;19.46;45.35
76680;BME280;65597;51.520;-0.224;2023-09-12T07:33:20;101294.78;;;19.48;45.23
76680;BME280;65597;51.520;-0.224;2023-09-12T07:35:46;101300.16;;;20.05;44.95
76680;BME280;65597;51.520;-0.224;2023-09-12T07:38:11;101303.59;;;20.05;45.03
76680;BME280;65597;51.520;-0.224;2023-09-12T07:40:36;101307.33;;;19.88;44.96
76680;BME280;65597;51.520;-0.224;2023-09-12T07:43:04;101308.05;;;19.38;45.08
76680;BME280;65597;51.520;-0.224;2023-09-12T07:45:27;101311.81;;;19.70;45.24
76680;BME280;65597;51.520;-0.224;2023-09-12T07:47:52;101310.29;;;19.24;45.31
76680;BME280;65597;51.520;-0.224;2023-09-12T07:50:18;101310.37;;;19.54;45.63
76680;BME280;65597;51.520;-0.224;2023-09-12T07:52:43;101311.43;;;19.62;45.42
76680;BME280;65597;51.520;-0.224;2023-09-12T07:55:10;101310.09;;;19.41;45.22
76680;BME280;65597;51.520;-0.224;2023-09-12T07:57:34;101309.64;;;19.62;45.38
76680;BME280;65597;51.520;-0.224;2023-09-12T07:59:59;101309.26;;;19.54;45.69
76680;BME280;65597;51.520;-0.224;2023-09-12T08:02:25;101310.00;;;19.69;45.50
76680;BME280;65597;51.520;-0.224;2023-09-12T08:04:50;101312.85;;;19.55;45.78
76680;BME280;65597;51.520;-0.224;2023-09-12T08:07:15;101312.98;;;19.53;45.60
76680;BME280;65597;51.520;-0.224;2023-09-12T08:09:48;101312.61;;;19.55;45.92
76680;BME280;65597;51.520;-0.224;2023-09-12T08:12:07;101310.03;;;19.73;46.20
76680;BME280;65597;51.520;-0.224;2023-09-12T08:14:32;101312.83;;;19.45;46.31
76680;BME280;65597;51.520;-0.224;2023-09-12T08:16:57;101312.24;;;19.29;45.93
76680;BME280;65597;51.520;-0.224;2023-09-12T08:19:23;101315.70;;;19.35;46.03
76680;BME280;65597;51.520;-0.224;2023-09-12T08:21:48;101316.82;;;19.59;46.17
76680;BME280;65597;51.520;-0.224;2023-09-12T08:24:13;101317.01;;;19.79;45.99
76680;BME280;65597;51.520;-0.224;2023-09-12T08:26:38;101314.67;;;19.85;46.12
76680;BME280;65597;51.520;-0.224;2023-09-12T08:29:04;101316.54;;;20.07;45.82
76680;BME280;65597;51.520;-0.224;2023-09-12T08:31:30;101319.00;;;19.71;45.78
76680;BME280;65597;51.520;-0.224;2023-09-12T08:33:55;101319.03;;;19.48;45.85
76680;BME280;65597;51.520;-0.224;2023-09-12T08:36:20;101319.33;;;19.42;45.92
76680;BME280;65597;51.520;-0.224;2023-09-12T08:38:45;101319.98;;;19.75;45.69
76680;BME280;65597;51.520;-0.224;2023-09-12T08:41:11;101320.86;;;19.45;45.55
76680;BME280;65597;51.520;-0.224;2023-09-12T08:43:38;101317.76;;;19.66;45.53
76680;BME280;65597;51.520;-0.224;2023-09-12T08:46:02;101317.50;;;19.48;45.81
76680;BME280;65597;51.520;-0.224;2023-09-12T08:48:27;101317.99;;;19.66;45.62
76680;BME280;65597;51.520;-0.224;2023-09-12T08:50:52;101320.30;;;20.00;45.29
76680;BME280;65597;51.520;-0.224;2023-09-12T08:53:18;101321.93;;;19.71;45.50
76680;BME280;65597;51.520;-0.224;2023-09-12T08:55:43;101326.26;;;19.89;45.29
76680;BME280;65597;51.520;-0.224;2023-09-12T08:58:09;101320.82;;;19.54;45.50
76680;BME280;65597;51.520;-0.224;2023-09-12T09:00:34;101322.22;;;20.21;45.40
76680;BME280;65597;51.520;-0.224;2023-09-12T09:03:00;101321.63;;;19.79;45.42
76680;BME280;65597;51.520;-0.224;2023-09-12T09:05:27;101322.76;;;19.36;45.20
76680;BME280;65597;51.520;-0.224;2023-09-12T09:07:53;101320.56;;;19.47;45.83
76680;BME280;65597;51.520;-0.224;2023-09-12T09:10:18;101320.78;;;19.63;46.36
76680;BME280;65597;51.520;-0.224;2023-09-12T09:12:43;101320.89;;;19.39;45.93
76680;BME280;65597;51.520;-0.224;2023-09-12T09:15:20;101323.17;;;19.61;45.72
76680;BME280;65597;51.520;-0.224;2023-09-12T09:17:32;101321.55;;;19.86;45.81
76680;BME280;65597;51.520;-0.224;2023-09-12T09:19:59;101321.16;;;19.20;45.64
76680;BME280;65597;51.520;-0.224;2023-09-12T09:22:23;101316.34;;;19.60;46.15
76680;BME280;65597;51.520;-0.224;2023-09-12T09:24:49;101316.82;;;19.60;45.70
76680;BME280;65597;51.520;-0.224;2023-09-12T09:29:46;101317.09;;;19.86;45.26
76680;BME280;65597;51.520;-0.224;2023-09-12T09:32:10;101316.47;;;19.94;44.83
76680;BME280;65597;51.520;-0.224;2023-09-12T09:34:30;101315.68;;;20.28;44.88
76680;BME280;65597;51.520;-0.224;2023-09-12T09:36:56;101315.07;;;20.29;44.97
76680;BME280;65597;51.520;-0.224;2023-09-12T09:39:22;101313.17;;;19.70;44.64
76680;BME280;65597;51.520;-0.224;2023-09-12T09:41:47;101311.39;;;19.81;44.86
76680;BME280;65597;51.520;-0.224;2023-09-12T09:44:11;101312.99;;;19.76;44.43
76680;BME280;65597;51.520;-0.224;2023-09-12T09:46:37;101311.62;;;19.18;44.36
76680;BME280;65597;51.520;-0.224;2023-09-12T09:49:02;101311.74;;;19.70;44.35
76680;BME280;65597;51.520;-0.224;2023-09-12T09:51:29;101313.88;;;19.47;44.02
76680;BME280;65597;51.520;-0.224;2023-09-12T09:53:53;101313.10;;;19.63;43.75
76680;BME280;65597;51.520;-0.224;2023-09-12T09:56:19;101309.44;;;19.70;43.48
76680;BME280;65597;51.520;-0.224;2023-09-12T09:58:46;101308.35;;;20.09;43.34
76680;BME280;65597;51.520;-0.224;2023-09-12T10:01:10;101309.88;;;20.10;43.63
76680;BME280;65597;51.520;-0.224;2023-09-12T10:03:36;101307.16;;;19.59;43.60
76680;BME280;65597;51.520;-0.224;2023-09-12T10:06:03;101307.90;;;19.71;43.35
76680;BME280;65597;51.520;-0.224;2023-09-12T10:08:25;101308.48;;;19.90;43.43
76680;BME280;65597;51.520;-0.224;2023-09-12T10:10:50;101307.81;;;19.38;43.83
76680;BME280;65597;51.520;-0.224;2023-09-12T10:13:16;101306.02;;;19.89;43.91
76680;BME280;65597;51.520;-0.224;2023-09-12T10:15:41;101309.95;;;20.22;43.36
76680;BME280;65597;51.520;-0.224;2023-09-12T10:18:09;101312.04;;;19.93;43.01
76680;BME280;65597;51.520;-0.224;2023-09-12T10:20:35;101309.67;;;19.42;43.33
76680;BME280;65597;51.520;-0.224;2023-09-12T10:23:03;101310.73;;;19.41;43.98
76680;BME280;65597;51.520;-0.224;2023-09-12T10:25:21;101306.02;;;19.23;44.17
76680;BME280;65597;51.520;-0.224;2023-09-12T10:27:47;101304.23;;;19.38;44.46
76680;BME280;65597;51.520;-0.224;2023-09-12T10:30:12;101303.59;;;19.22;44.17
76680;BME280;65597;51.520;-0.224;2023-09-12T10:32:38;101302.47;;;17.80;45.50
76680;BME280;65597;51.520;-0.224;2023-09-12T10:35:04;101303.11;;;18.68;44.87
76680;BME280;65597;51.520;-0.224;2023-09-12T10:37:29;101301.56;;;19.13;43.03
76680;BME280;65597;51.520;-0.224;2023-09-12T10:39:53;101299.18;;;19.54;42.45
76680;BME280;65597;51.520;-0.224;2023-09-12T10:42:20;101301.16;;;19.47;43.15
76680;BME280;65597;51.520;-0.224;2023-09-12T10:44:46;101300.87;;;19.24;43.16
76680;BME280;65597;51.520;-0.224;2023-09-12T10:47:09;101300.90;;;19.85;42.38
76680;BME280;65597;51.520;-0.224;2023-09-12T10:49:34;101298.91;;;19.93;41.81
76680;BME280;65597;51.520;-0.224;2023-09-12T10:51:59;101298.33;;;19.52;42.25
76680;BME280;65597;51.520;-0.224;2023-09-12T10:54:26;101298.49;;;18.99;43.04
76680;BME280;65597;51.520;-0.224;2023-09-12T10:57:02;101297.90;;;19.29;42.55
76680;BME280;65597;51.520;-0.224;2023-09-12T10:59:15;101295.57;;;19.45;43.09
76680;BME280;65597;51.520;-0.224;2023-09-12T11:01:42;101296.76;;;19.00;43.31
76680;BME280;65597;51.520;-0.224;2023-09-12T11:06:31;101289.22;;;19.54;42.47
76680;BME280;65597;51.520;-0.224;2023-09-12T11:09:15;101289.91;;;19.48;42.55
76680;BME280;65597;51.520;-0.224;2023-09-12T11:11:22;101294.01;;;19.92;42.18
76680;BME280;65597;51.520;-0.224;2023-09-12T11:16:14;101292.33;;;19.20;42.89
76680;BME280;65597;51.520;-0.224;2023-09-12T11:21:03;101293.61;;;19.40;42.05
76680;BME280;65597;51.520;-0.224;2023-09-12T11:23:28;101290.60;;;19.28;42.37
76680;BME280;65597;51.520;-0.224;2023-09-12T11:26:04;101290.85;;;19.63;42.16
76680;BME280;65597;51.520;-0.224;2023-09-12T11:28:19;101290.82;;;19.62;42.29
76680;BME280;65597;51.520;-0.224;2023-09-12T11:30:54;101287.89;;;19.49;42.39
76680;BME280;65597;51.520;-0.224;2023-09-12T11:33:10;101283.11;;;20.48;41.83
76680;BME280;65597;51.520;-0.224;2023-09-12T11:35:37;101278.29;;;20.05;41.52
76680;BME280;65597;51.520;-0.224;2023-09-12T11:38:00;101282.29;;;20.31;41.10
76680;BME280;65597;51.520;-0.224;2023-09-12T11:42:51;101285.28;;;20.60;40.30
76680;BME280;65597;51.520;-0.224;2023-09-12T11:45:18;101281.48;;;20.10;40.73
76680;BME280;65597;51.520;-0.224;2023-09-12T11:47:42;101279.48;;;20.19;40.37
76680;BME280;65597;51.520;-0.224;2023-09-12T11:50:07;101279.15;;;20.22;40.94
76680;BME280;65597;51.520;-0.224;2023-09-12T11:52:36;101284.23;;;20.12;40.04
76680;BME280;65597;51.520;-0.224;2023-09-12T11:54:57;101282.22;;;20.40;40.38
76680;BME280;65597;51.520;-0.224;2023-09-12T11:57:24;101279.21;;;20.36;40.41
76680;BME280;65597;51.520;-0.224;2023-09-12T11:59:48;101276.00;;;20.44;40.45
76680;BME280;65597;51.520;-0.224;2023-09-12T12:02:14;101275.07;;;20.38;39.80
76680;BME280;65597;51.520;-0.224;2023-09-12T12:04:38;101271.06;;;20.52;39.74
76680;BME280;65597;51.520;-0.224;2023-09-12T12:07:04;101273.46;;;21.07;39.31
76680;BME280;65597;51.520;-0.224;2023-09-12T12:09:28;101276.54;;;20.70;39.96
76680;BME280;65597;51.520;-0.224;2023-09-12T12:11:53;101272.96;;;20.76;39.64
76680;BME280;65597;51.520;-0.224;2023-09-12T12:14:19;101278.24;;;20.67;39.83
76680;BME280;65597;51.520;-0.224;2023-09-12T12:16:45;101278.32;;;20.97;39.44
76680;BME280;65597;51.520;-0.224;2023-09-12T12:19:10;101271.21;;;20.41;39.38
76680;BME280;65597;51.520;-0.224;2023-09-12T12:21:35;101273.15;;;20.36;39.92
76680;BME280;65597;51.520;-0.224;2023-09-12T12:24:01;101270.44;;;19.72;40.15
76680;BME280;65597;51.520;-0.224;2023-09-12T12:26:26;101268.98;;;20.24;40.06
76680;BME280;65597;51.520;-0.224;2023-09-12T12:28:51;101267.98;;;20.07;40.61
76680;BME280;65597;51.520;-0.224;2023-09-12T12:31:16;101269.29;;;19.82;40.60
76680;BME280;65597;51.520;-0.224;2023-09-12T12:33:48;101270.02;;;20.18;40.84
76680;BME280;65597;51.520;-0.224;2023-09-12T12:36:07;101265.25;;;19.76;41.17
76680;BME280;65597;51.520;-0.224;2023-09-12T12:38:33;101263.34;;;19.61;41.41
76680;BME280;65597;51.520;-0.224;2023-09-12T12:40:57;101260.94;;;19.88;41.65
76680;BME280;65597;51.520;-0.224;2023-09-12T12:43:22;101262.57;;;19.88;41.90